Weather at Fond du Lac County Airport

Public forecast

Using degrees Fahrenheit for public forecast. Weather courtesy of forecast.io.

Current aviation weather report (METAR) for Fond du Lac County Airport

Retrieved 2021/06/19 23:53 UTC (12 minutes ago):

KFLD 192353Z AUTO 00000KT 10SM CLR 26/14 A2975 RMK AO2 SLP068 T02610139 10278 20250 55001

Closest aviation forecast (TAF) to Fond du Lac County Airport

Forecast is more than 12 hours old.

Closest forecast is Wittman Regional Airport, 13.1 nm (24.3 km) NNW. Retrieved 2021/05/03 12:42 UTC (2 months ago):

TAF KOSH 031141Z 0312/0412 VRB04KT 4SM TSRA BR OVC005CB TEMPO 0315/0318 2SM TSRA BR OVC001CB FM031800 04005KT 4SM SHRA BR OVC006 TEMPO 0318/0321 2SM TSRA BR OVC004CB FM040000 36007KT 4SM BR VCTS BKN005CB FM040300 35007KT 6SM BR VCSH BKN008 FM040600 33009KT P6SM OVC010